sensor_id;sensor_type;location;lat;lon;timestamp;P1;durP1;ratioP1;P2;durP2;ratioP2
20743;SDS011;56303;52.160;-0.428;2023-04-24T00:01:54;20.40;;;18.30;;
20743;SDS011;56303;52.160;-0.428;2023-04-24T00:04:22;17.77;;;15.87;;
20743;SDS011;56303;52.160;-0.428;2023-04-24T00:06:52;17.83;;;16.13;;
20743;SDS011;56303;52.160;-0.428;2023-04-24T00:09:23;19.63;;;17.73;;
20743;SDS011;56303;52.160;-0.428;2023-04-24T00:11:50;20.50;;;18.47;;
20743;SDS011;56303;52.160;-0.428;2023-04-24T00:14:17;19.43;;;17.43;;
20743;SDS011;56303;52.160;-0.428;2023-04-24T00:16:44;19.80;;;17.87;;
20743;SDS011;56303;52.160;-0.428;2023-04-24T00:19:11;19.83;;;16.80;;
20743;SDS011;56303;52.160;-0.428;2023-04-24T00:21:39;19.80;;;17.70;;
20743;SDS011;56303;52.160;-0.428;2023-04-24T00:24:07;19.30;;;17.40;;
20743;SDS011;56303;52.160;-0.428;2023-04-24T00:26:37;19.90;;;17.90;;
20743;SDS011;56303;52.160;-0.428;2023-04-24T00:29:03;20.27;;;18.17;;
20743;SDS011;56303;52.160;-0.428;2023-04-24T00:31:30;21.53;;;19.10;;
20743;SDS011;56303;52.160;-0.428;2023-04-24T00:33:57;19.83;;;17.83;;
20743;SDS011;56303;52.160;-0.428;2023-04-24T00:36:24;18.17;;;15.43;;
20743;SDS011;56303;52.160;-0.428;2023-04-24T00:38:51;18.70;;;16.70;;
20743;SDS011;56303;52.160;-0.428;2023-04-24T00:41:18;18.37;;;16.47;;
20743;SDS011;56303;52.160;-0.428;2023-04-24T00:43:45;15.67;;;12.47;;
20743;SDS011;56303;52.160;-0.428;2023-04-24T00:46:12;14.83;;;10.57;;
20743;SDS011;56303;52.160;-0.428;2023-04-24T00:48:40;16.43;;;9.97;;
20743;SDS011;56303;52.160;-0.428;2023-04-24T00:51:07;12.97;;;8.70;;
20743;SDS011;56303;52.160;-0.428;2023-04-24T00:53:34;10.00;;;7.97;;
20743;SDS011;56303;52.160;-0.428;2023-04-24T00:56:02;14.70;;;9.40;;
20743;SDS011;56303;52.160;-0.428;2023-04-24T00:58:30;10.47;;;7.83;;
20743;SDS011;56303;52.160;-0.428;2023-04-24T01:00:58;17.40;;;10.03;;
20743;SDS011;56303;52.160;-0.428;2023-04-24T01:03:29;18.03;;;8.67;;
20743;SDS011;56303;52.160;-0.428;2023-04-24T01:05:58;10.93;;;7.87;;
20743;SDS011;56303;52.160;-0.428;2023-04-24T01:08:25;12.37;;;8.60;;
20743;SDS011;56303;52.160;-0.428;2023-04-24T01:10:54;12.63;;;8.97;;
20743;SDS011;56303;52.160;-0.428;2023-04-24T01:13:23;11.60;;;7.63;;
20743;SDS011;56303;52.160;-0.428;2023-04-24T01:15:50;12.10;;;7.50;;
20743;SDS011;56303;52.160;-0.428;2023-04-24T01:18:17;10.80;;;7.43;;
20743;SDS011;56303;52.160;-0.428;2023-04-24T01:20:44;10.47;;;7.70;;
20743;SDS011;56303;52.160;-0.428;2023-04-24T01:23:12;10.50;;;6.57;;
20743;SDS011;56303;52.160;-0.428;2023-04-24T01:25:39;11.33;;;6.53;;
20743;SDS011;56303;52.160;-0.428;2023-04-24T01:28:07;11.97;;;7.80;;
20743;SDS011;56303;52.160;-0.428;2023-04-24T01:30:33;13.77;;;7.77;;
20743;SDS011;56303;52.160;-0.428;2023-04-24T01:33:00;14.33;;;8.23;;
20743;SDS011;56303;52.160;-0.428;2023-04-24T01:35:29;15.73;;;7.27;;
20743;SDS011;56303;52.160;-0.428;2023-04-24T01:37:55;8.80;;;7.17;;
20743;SDS011;56303;52.160;-0.428;2023-04-24T01:40:22;11.83;;;5.97;;
20743;SDS011;56303;52.160;-0.428;2023-04-24T01:42:49;9.73;;;6.53;;
20743;SDS011;56303;52.160;-0.428;2023-04-24T01:45:17;11.53;;;6.73;;
20743;SDS011;56303;52.160;-0.428;2023-04-24T01:47:45;10.37;;;6.57;;
20743;SDS011;56303;52.160;-0.428;2023-04-24T01:50:12;11.90;;;6.67;;
20743;SDS011;56303;52.160;-0.428;2023-04-24T01:52:39;14.57;;;7.03;;
20743;SDS011;56303;52.160;-0.428;2023-04-24T01:55:06;11.43;;;7.13;;
20743;SDS011;56303;52.160;-0.428;2023-04-24T01:57:34;10.63;;;6.77;;
20743;SDS011;56303;52.160;-0.428;2023-04-24T02:00:01;10.70;;;7.10;;
20743;SDS011;56303;52.160;-0.428;2023-04-24T02:02:30;8.50;;;6.63;;
20743;SDS011;56303;52.160;-0.428;2023-04-24T02:04:58;10.33;;;6.90;;
20743;SDS011;56303;52.160;-0.428;2023-04-24T02:07:25;14.53;;;6.70;;
20743;SDS011;56303;52.160;-0.428;2023-04-24T02:09:52;12.73;;;6.40;;
20743;SDS011;56303;52.160;-0.428;2023-04-24T02:12:19;11.83;;;6.20;;
20743;SDS011;56303;52.160;-0.428;2023-04-24T02:14:46;13.40;;;5.67;;
20743;SDS011;56303;52.160;-0.428;2023-04-24T02:17:12;10.13;;;5.10;;
20743;SDS011;56303;52.160;-0.428;2023-04-24T02:19:40;9.17;;;5.50;;
20743;SDS011;56303;52.160;-0.428;2023-04-24T02:22:07;10.93;;;5.17;;
20743;SDS011;56303;52.160;-0.428;2023-04-24T02:24:34;9.27;;;5.63;;
20743;SDS011;56303;52.160;-0.428;2023-04-24T02:27:01;9.80;;;4.50;;
20743;SDS011;56303;52.160;-0.428;2023-04-24T02:29:28;11.03;;;5.00;;
20743;SDS011;56303;52.160;-0.428;2023-04-24T02:31:55;11.30;;;4.93;;
20743;SDS011;56303;52.160;-0.428;2023-04-24T02:34:22;9.33;;;5.37;;
20743;SDS011;56303;52.160;-0.428;2023-04-24T02:36:49;10.30;;;5.53;;
20743;SDS011;56303;52.160;-0.428;2023-04-24T02:39:16;9.87;;;5.23;;
20743;SDS011;56303;52.160;-0.428;2023-04-24T02:41:43;11.73;;;5.27;;
20743;SDS011;56303;52.160;-0.428;2023-04-24T02:44:10;11.10;;;5.40;;
20743;SDS011;56303;52.160;-0.428;2023-04-24T02:46:37;8.77;;;4.73;;
20743;SDS011;56303;52.160;-0.428;2023-04-24T02:49:04;7.43;;;5.00;;
20743;SDS011;56303;52.160;-0.428;2023-04-24T02:51:30;11.23;;;5.53;;
20743;SDS011;56303;52.160;-0.428;2023-04-24T02:53:57;9.23;;;5.57;;
20743;SDS011;56303;52.160;-0.428;2023-04-24T02:56:24;10.20;;;5.17;;
20743;SDS011;56303;52.160;-0.428;2023-04-24T02:58:51;9.27;;;5.67;;
20743;SDS011;56303;52.160;-0.428;2023-04-24T03:01:18;10.23;;;6.23;;
20743;SDS011;56303;52.160;-0.428;2023-04-24T03:03:45;10.53;;;5.83;;
20743;SDS011;56303;52.160;-0.428;2023-04-24T03:06:12;13.70;;;5.90;;
20743;SDS011;56303;52.160;-0.428;2023-04-24T03:08:39;12.00;;;5.83;;
20743;SDS011;56303;52.160;-0.428;2023-04-24T03:11:06;10.53;;;5.40;;
20743;SDS011;56303;52.160;-0.428;2023-04-24T03:13:32;15.00;;;5.53;;
20743;SDS011;56303;52.160;-0.428;2023-04-24T03:15:59;11.17;;;6.00;;
20743;SDS011;56303;52.160;-0.428;2023-04-24T03:18:26;15.23;;;5.13;;
20743;SDS011;56303;52.160;-0.428;2023-04-24T03:20:53;10.20;;;4.20;;
20743;SDS011;56303;52.160;-0.428;2023-04-24T03:23:20;10.43;;;4.87;;
20743;SDS011;56303;52.160;-0.428;2023-04-24T03:25:46;12.40;;;4.93;;
20743;SDS011;56303;52.160;-0.428;2023-04-24T03:28:14;11.47;;;4.63;;
20743;SDS011;56303;52.160;-0.428;2023-04-24T03:30:41;12.20;;;4.30;;
20743;SDS011;56303;52.160;-0.428;2023-04-24T03:33:08;11.97;;;4.53;;
20743;SDS011;56303;52.160;-0.428;2023-04-24T03:35:35;9.50;;;3.97;;
20743;SDS011;56303;52.160;-0.428;2023-04-24T03:38:02;7.83;;;4.37;;
20743;SDS011;56303;52.160;-0.428;2023-04-24T03:40:30;12.67;;;4.27;;
20743;SDS011;56303;52.160;-0.428;2023-04-24T03:42:59;8.93;;;3.70;;
20743;SDS011;56303;52.160;-0.428;2023-04-24T03:45:26;6.47;;;3.60;;
20743;SDS011;56303;52.160;-0.428;2023-04-24T03:47:53;11.23;;;3.70;;
20743;SDS011;56303;52.160;-0.428;2023-04-24T03:50:20;10.43;;;3.67;;
20743;SDS011;56303;52.160;-0.428;2023-04-24T03:52:46;8.40;;;3.93;;
20743;SDS011;56303;52.160;-0.428;2023-04-24T03:55:13;8.77;;;3.70;;
20743;SDS011;56303;52.160;-0.428;2023-04-24T03:57:40;10.33;;;3.40;;
20743;SDS011;56303;52.160;-0.428;2023-04-24T04:00:07;9.63;;;3.57;;
20743;SDS011;56303;52.160;-0.428;2023-04-24T04:02:35;9.20;;;3.63;;
20743;SDS011;56303;52.160;-0.428;2023-04-24T04:05:02;6.87;;;4.00;;
20743;SDS011;56303;52.160;-0.428;2023-04-24T04:07:29;6.27;;;3.10;;
20743;SDS011;56303;52.160;-0.428;2023-04-24T04:09:56;8.97;;;3.63;;
20743;SDS011;56303;52.160;-0.428;2023-04-24T04:12:23;7.30;;;3.60;;
20743;SDS011;56303;52.160;-0.428;2023-04-24T04:14:49;6.43;;;3.33;;
20743;SDS011;56303;52.160;-0.428;2023-04-24T04:17:16;11.97;;;4.13;;
20743;SDS011;56303;52.160;-0.428;2023-04-24T04:19:44;6.43;;;3.33;;
20743;SDS011;56303;52.160;-0.428;2023-04-24T04:22:11;9.37;;;3.47;;
20743;SDS011;56303;52.160;-0.428;2023-04-24T04:24:37;5.80;;;3.20;;
20743;SDS011;56303;52.160;-0.428;2023-04-24T04:27:06;7.17;;;3.10;;
20743;SDS011;56303;52.160;-0.428;2023-04-24T04:29:34;10.00;;;3.80;;
20743;SDS011;56303;52.160;-0.428;2023-04-24T04:32:01;8.30;;;3.13;;
20743;SDS011;56303;52.160;-0.428;2023-04-24T04:34:28;5.70;;;3.20;;
20743;SDS011;56303;52.160;-0.428;2023-04-24T04:36:55;5.43;;;3.23;;
20743;SDS011;56303;52.160;-0.428;2023-04-24T04:39:25;7.03;;;3.53;;
20743;SDS011;56303;52.160;-0.428;2023-04-24T04:41:54;7.50;;;3.10;;
20743;SDS011;56303;52.160;-0.428;2023-04-24T04:44:21;7.27;;;3.20;;
20743;SDS011;56303;52.160;-0.428;2023-04-24T04:46:47;9.17;;;3.47;;
20743;SDS011;56303;52.160;-0.428;2023-04-24T04:49:14;5.83;;;3.00;;
20743;SDS011;56303;52.160;-0.428;2023-04-24T04:51:43;5.90;;;3.00;;
20743;SDS011;56303;52.160;-0.428;2023-04-24T04:54:09;7.83;;;3.90;;
20743;SDS011;56303;52.160;-0.428;2023-04-24T04:56:36;5.83;;;3.37;;
20743;SDS011;56303;52.160;-0.428;2023-04-24T04:59:03;6.47;;;3.10;;
20743;SDS011;56303;52.160;-0.428;2023-04-24T05:01:30;10.40;;;4.10;;
20743;SDS011;56303;52.160;-0.428;2023-04-24T05:03:57;11.77;;;3.53;;
20743;SDS011;56303;52.160;-0.428;2023-04-24T05:06:24;15.17;;;3.70;;
20743;SDS011;56303;52.160;-0.428;2023-04-24T05:08:52;9.13;;;3.70;;
20743;SDS011;56303;52.160;-0.428;2023-04-24T05:11:23;9.97;;;3.50;;
20743;SDS011;56303;52.160;-0.428;2023-04-24T05:13:50;7.30;;;3.30;;
20743;SDS011;56303;52.160;-0.428;2023-04-24T05:16:17;6.33;;;3.30;;
20743;SDS011;56303;52.160;-0.428;2023-04-24T05:18:44;9.23;;;3.77;;
20743;SDS011;56303;52.160;-0.428;2023-04-24T05:21:11;6.93;;;3.17;;
20743;SDS011;56303;52.160;-0.428;2023-04-24T05:23:38;5.07;;;3.00;;
20743;SDS011;56303;52.160;-0.428;2023-04-24T05:26:05;7.30;;;3.27;;
20743;SDS011;56303;52.160;-0.428;2023-04-24T05:28:33;9.80;;;3.40;;
20743;SDS011;56303;52.160;-0.428;2023-04-24T05:31:02;6.10;;;3.23;;
20743;SDS011;56303;52.160;-0.428;2023-04-24T05:33:29;5.43;;;3.23;;
20743;SDS011;56303;52.160;-0.428;2023-04-24T05:35:56;10.30;;;3.47;;
20743;SDS011;56303;52.160;-0.428;2023-04-24T05:38:23;6.37;;;2.90;;
20743;SDS011;56303;52.160;-0.428;2023-04-24T05:40:50;9.60;;;3.13;;
20743;SDS011;56303;52.160;-0.428;2023-04-24T05:43:17;7.07;;;4.03;;
20743;SDS011;56303;52.160;-0.428;2023-04-24T05:45:44;4.57;;;2.50;;
20743;SDS011;56303;52.160;-0.428;2023-04-24T05:48:14;8.53;;;3.10;;
20743;SDS011;56303;52.160;-0.428;2023-04-24T05:50:41;7.07;;;3.03;;
20743;SDS011;56303;52.160;-0.428;2023-04-24T05:53:08;7.47;;;2.77;;
20743;SDS011;56303;52.160;-0.428;2023-04-24T05:55:37;4.83;;;2.53;;
20743;SDS011;56303;52.160;-0.428;2023-04-24T05:58:04;5.90;;;2.90;;
20743;SDS011;56303;52.160;-0.428;2023-04-24T06:00:31;6.07;;;2.83;;
20743;SDS011;56303;52.160;-0.428;2023-04-24T06:02:59;7.67;;;3.23;;
20743;SDS011;56303;52.160;-0.428;2023-04-24T06:05:27;7.20;;;2.90;;
20743;SDS011;56303;52.160;-0.428;2023-04-24T06:07:54;7.03;;;2.57;;
20743;SDS011;56303;52.160;-0.428;2023-04-24T06:10:21;5.67;;;2.83;;
20743;SDS011;56303;52.160;-0.428;2023-04-24T06:12:48;7.27;;;2.93;;
20743;SDS011;56303;52.160;-0.428;2023-04-24T06:15:15;7.10;;;2.93;;
20743;SDS011;56303;52.160;-0.428;2023-04-24T06:17:42;7.23;;;3.00;;
20743;SDS011;56303;52.160;-0.428;2023-04-24T06:20:09;7.30;;;2.73;;
20743;SDS011;56303;52.160;-0.428;2023-04-24T06:22:37;7.07;;;2.60;;
20743;SDS011;56303;52.160;-0.428;2023-04-24T06:25:06;4.77;;;2.30;;
20743;SDS011;56303;52.160;-0.428;2023-04-24T06:27:33;4.80;;;2.67;;
20743;SDS011;56303;52.160;-0.428;2023-04-24T06:30:01;5.50;;;2.30;;
20743;SDS011;56303;52.160;-0.428;2023-04-24T06:32:28;5.13;;;2.67;;
20743;SDS011;56303;52.160;-0.428;2023-04-24T06:34:57;8.20;;;3.47;;
20743;SDS011;56303;52.160;-0.428;2023-04-24T06:37:24;6.63;;;2.73;;
20743;SDS011;56303;52.160;-0.428;2023-04-24T06:39:52;6.47;;;2.57;;
20743;SDS011;56303;52.160;-0.428;2023-04-24T06:42:18;5.83;;;2.83;;
20743;SDS011;56303;52.160;-0.428;2023-04-24T06:44:47;6.57;;;2.83;;
20743;SDS011;56303;52.160;-0.428;2023-04-24T06:47:13;4.70;;;1.97;;
20743;SDS011;56303;52.160;-0.428;2023-04-24T06:49:41;6.27;;;2.60;;
20743;SDS011;56303;52.160;-0.428;2023-04-24T06:52:08;6.67;;;2.47;;
20743;SDS011;56303;52.160;-0.428;2023-04-24T06:54:35;6.33;;;2.63;;
20743;SDS011;56303;52.160;-0.428;2023-04-24T06:57:02;7.30;;;2.53;;
20743;SDS011;56303;52.160;-0.428;2023-04-24T06:59:29;6.83;;;3.03;;
20743;SDS011;56303;52.160;-0.428;2023-04-24T07:01:56;4.57;;;2.47;;
20743;SDS011;56303;52.160;-0.428;2023-04-24T07:04:23;4.63;;;2.60;;
20743;SDS011;56303;52.160;-0.428;2023-04-24T07:06:52;7.77;;;2.53;;
20743;SDS011;56303;52.160;-0.428;2023-04-24T07:09:22;6.10;;;2.60;;
20743;SDS011;56303;52.160;-0.428;2023-04-24T07:11:49;5.27;;;2.53;;
20743;SDS011;56303;52.160;-0.428;2023-04-24T07:14:17;6.80;;;2.50;;
20743;SDS011;56303;52.160;-0.428;2023-04-24T07:16:44;5.20;;;2.20;;
20743;SDS011;56303;52.160;-0.428;2023-04-24T07:19:12;5.50;;;3.10;;
20743;SDS011;56303;52.160;-0.428;2023-04-24T07:21:40;8.80;;;2.47;;
20743;SDS011;56303;52.160;-0.428;2023-04-24T07:24:07;5.27;;;2.30;;
20743;SDS011;56303;52.160;-0.428;2023-04-24T07:26:36;6.50;;;2.13;;
20743;SDS011;56303;52.160;-0.428;2023-04-24T07:29:04;6.00;;;2.30;;
20743;SDS011;56303;52.160;-0.428;2023-04-24T07:31:31;7.93;;;2.00;;
20743;SDS011;56303;52.160;-0.428;2023-04-24T07:33:58;5.67;;;2.10;;
20743;SDS011;56303;52.160;-0.428;2023-04-24T07:36:25;3.57;;;2.00;;
20743;SDS011;56303;52.160;-0.428;2023-04-24T07:38:53;3.50;;;2.27;;
20743;SDS011;56303;52.160;-0.428;2023-04-24T07:41:21;4.03;;;2.37;;
20743;SDS011;56303;52.160;-0.428;2023-04-24T07:43:50;5.03;;;2.10;;
20743;SDS011;56303;52.160;-0.428;2023-04-24T07:46:18;8.30;;;3.47;;
20743;SDS011;56303;52.160;-0.428;2023-04-24T07:48:46;4.73;;;1.57;;
20743;SDS011;56303;52.160;-0.428;2023-04-24T07:51:30;3.67;;;1.60;;
20743;SDS011;56303;52.160;-0.428;2023-04-24T07:53:59;3.97;;;2.10;;
20743;SDS011;56303;52.160;-0.428;2023-04-24T07:56:26;3.13;;;1.50;;
20743;SDS011;56303;52.160;-0.428;2023-04-24T07:58:53;5.63;;;2.17;;
20743;SDS011;56303;52.160;-0.428;2023-04-24T08:01:20;4.23;;;2.17;;
20743;SDS011;56303;52.160;-0.428;2023-04-24T08:03:47;2.23;;;1.37;;
20743;SDS011;56303;52.160;-0.428;2023-04-24T08:06:14;3.00;;;1.50;;
20743;SDS011;56303;52.160;-0.428;2023-04-24T08:08:41;4.77;;;2.57;;
20743;SDS011;56303;52.160;-0.428;2023-04-24T08:11:08;6.33;;;1.73;;
20743;SDS011;56303;52.160;-0.428;2023-04-24T08:13:35;5.63;;;2.30;;
20743;SDS011;56303;52.160;-0.428;2023-04-24T08:16:01;4.33;;;1.97;;
20743;SDS011;56303;52.160;-0.428;2023-04-24T08:18:28;4.60;;;2.00;;
20743;SDS011;56303;52.160;-0.428;2023-04-24T08:20:55;3.93;;;1.67;;
20743;SDS011;56303;52.160;-0.428;2023-04-24T08:23:27;4.13;;;1.80;;
20743;SDS011;56303;52.160;-0.428;2023-04-24T08:25:55;3.00;;;1.83;;
20743;SDS011;56303;52.160;-0.428;2023-04-24T08:28:23;6.00;;;2.10;;
20743;SDS011;56303;52.160;-0.428;2023-04-24T08:30:50;4.83;;;1.70;;
20743;SDS011;56303;52.160;-0.428;2023-04-24T08:33:24;4.53;;;1.60;;
20743;SDS011;56303;52.160;-0.428;2023-04-24T08:35:51;4.90;;;1.83;;
20743;SDS011;56303;52.160;-0.428;2023-04-24T08:38:18;4.20;;;1.70;;
20743;SDS011;56303;52.160;-0.428;2023-04-24T08:40:45;3.43;;;1.80;;
20743;SDS011;56303;52.160;-0.428;2023-04-24T08:43:15;4.10;;;1.67;;
20743;SDS011;56303;52.160;-0.428;2023-04-24T08:45:43;3.93;;;2.10;;
20743;SDS011;56303;52.160;-0.428;2023-04-24T08:48:11;3.57;;;1.63;;
20743;SDS011;56303;52.160;-0.428;2023-04-24T08:50:55;2.87;;;1.50;;
20743;SDS011;56303;52.160;-0.428;2023-04-24T08:53:24;3.97;;;1.87;;
20743;SDS011;56303;52.160;-0.428;2023-04-24T08:55:52;3.57;;;1.60;;
20743;SDS011;56303;52.160;-0.428;2023-04-24T08:58:22;7.13;;;2.20;;
20743;SDS011;56303;52.160;-0.428;2023-04-24T09:00:53;3.73;;;1.73;;
20743;SDS011;56303;52.160;-0.428;2023-04-24T09:03:21;5.67;;;2.07;;
20743;SDS011;56303;52.160;-0.428;2023-04-24T09:05:48;3.27;;;1.77;;
20743;SDS011;56303;52.160;-0.428;2023-04-24T09:08:17;3.17;;;1.83;;
20743;SDS011;56303;52.160;-0.428;2023-04-24T09:10:45;3.80;;;1.80;;
20743;SDS011;56303;52.160;-0.428;2023-04-24T09:13:16;6.53;;;2.43;;
20743;SDS011;56303;52.160;-0.428;2023-04-24T09:15:44;5.73;;;2.20;;
20743;SDS011;56303;52.160;-0.428;2023-04-24T09:18:11;5.80;;;2.27;;
20743;SDS011;56303;52.160;-0.428;2023-04-24T09:23:31;5.53;;;2.20;;
20743;SDS011;56303;52.160;-0.428;2023-04-24T09:25:59;4.40;;;2.40;;
20743;SDS011;56303;52.160;-0.428;2023-04-24T09:31:09;6.97;;;2.37;;
20743;SDS011;56303;52.160;-0.428;2023-04-24T09:34:01;4.67;;;2.07;;
20743;SDS011;56303;52.160;-0.428;2023-04-24T09:36:36;4.33;;;2.00;;
20743;SDS011;56303;52.160;-0.428;2023-04-24T09:39:11;7.00;;;2.30;;
20743;SDS011;56303;52.160;-0.428;2023-04-24T09:41:49;5.80;;;2.33;;
20743;SDS011;56303;52.160;-0.428;2023-04-24T09:44:18;3.60;;;2.03;;
20743;SDS011;56303;52.160;-0.428;2023-04-24T09:46:54;5.37;;;2.60;;
20743;SDS011;56303;52.160;-0.428;2023-04-24T09:49:24;3.27;;;2.33;;
20743;SDS011;56303;52.160;-0.428;2023-04-24T09:51:52;3.90;;;2.17;;
20743;SDS011;56303;52.160;-0.428;2023-04-24T09:54:28;2.90;;;1.77;;
20743;SDS011;56303;52.160;-0.428;2023-04-24T09:56:55;5.13;;;2.17;;
20743;SDS011;56303;52.160;-0.428;2023-04-24T09:59:23;4.50;;;2.10;;
20743;SDS011;56303;52.160;-0.428;2023-04-24T10:01:51;5.87;;;2.40;;
20743;SDS011;56303;52.160;-0.428;2023-04-24T10:04:22;4.97;;;2.10;;
20743;SDS011;56303;52.160;-0.428;2023-04-24T10:06:51;2.63;;;1.67;;
20743;SDS011;56303;52.160;-0.428;2023-04-24T10:09:21;10.00;;;3.13;;
20743;SDS011;56303;52.160;-0.428;2023-04-24T10:11:51;6.60;;;2.67;;
20743;SDS011;56303;52.160;-0.428;2023-04-24T10:14:23;6.77;;;2.50;;
20743;SDS011;56303;52.160;-0.428;2023-04-24T10:16:53;5.57;;;2.60;;
20743;SDS011;56303;52.160;-0.428;2023-04-24T10:19:21;3.67;;;2.30;;
20743;SDS011;56303;52.160;-0.428;2023-04-24T10:21:51;4.27;;;2.43;;
20743;SDS011;56303;52.160;-0.428;2023-04-24T10:24:20;5.30;;;2.50;;
20743;SDS011;56303;52.160;-0.428;2023-04-24T10:26:47;5.70;;;2.83;;
20743;SDS011;56303;52.160;-0.428;2023-04-24T10:29:16;2.97;;;2.03;;
20743;SDS011;56303;52.160;-0.428;2023-04-24T10:31:44;4.37;;;2.20;;
20743;SDS011;56303;52.160;-0.428;2023-04-24T10:34:17;7.83;;;2.70;;
20743;SDS011;56303;52.160;-0.428;2023-04-24T10:36:53;3.20;;;2.03;;
20743;SDS011;56303;52.160;-0.428;2023-04-24T10:39:23;6.93;;;1.90;;
20743;SDS011;56303;52.160;-0.428;2023-04-24T10:41:53;4.30;;;1.87;;
20743;SDS011;56303;52.160;-0.428;2023-04-24T10:44:23;3.73;;;1.80;;
20743;SDS011;56303;52.160;-0.428;2023-04-24T10:46:54;3.20;;;2.17;;
20743;SDS011;56303;52.160;-0.428;2023-04-24T10:49:29;4.33;;;1.97;;
20743;SDS011;56303;52.160;-0.428;2023-04-24T10:52:00;5.20;;;2.40;;
20743;SDS011;56303;52.160;-0.428;2023-04-24T10:54:41;5.73;;;2.50;;
20743;SDS011;56303;52.160;-0.428;2023-04-24T10:59:47;3.50;;;2.27;;
20743;SDS011;56303;52.160;-0.428;2023-04-24T11:02:15;3.37;;;2.13;;
20743;SDS011;56303;52.160;-0.428;2023-04-24T11:04:43;4.63;;;2.73;;
20743;SDS011;56303;52.160;-0.428;2023-04-24T11:07:11;5.57;;;2.77;;
20743;SDS011;56303;52.160;-0.428;2023-04-24T11:09:39;4.80;;;2.60;;
20743;SDS011;56303;52.160;-0.428;2023-04-24T11:12:10;6.83;;;2.60;;
20743;SDS011;56303;52.160;-0.428;2023-04-24T11:17:30;5.07;;;2.60;;
20743;SDS011;56303;52.160;-0.428;2023-04-24T11:20:16;6.33;;;2.83;;
20743;SDS011;56303;52.160;-0.428;2023-04-24T11:22:53;5.50;;;2.53;;
20743;SDS011;56303;52.160;-0.428;2023-04-24T11:25:22;4.63;;;2.23;;
20743;SDS011;56303;52.160;-0.428;2023-04-24T11:27:49;3.97;;;2.47;;
20743;SDS011;56303;52.160;-0.428;2023-04-24T11:30:17;4.30;;;2.57;;
20743;SDS011;56303;52.160;-0.428;2023-04-24T11:32:47;4.47;;;2.63;;
20743;SDS011;56303;52.160;-0.428;2023-04-24T11:35:22;6.97;;;2.50;;
20743;SDS011;56303;52.160;-0.428;2023-04-24T11:37:55;3.80;;;2.20;;
20743;SDS011;56303;52.160;-0.428;2023-04-24T11:40:25;6.37;;;2.63;;
20743;SDS011;56303;52.160;-0.428;2023-04-24T11:42:52;4.13;;;2.55;;
20743;SDS011;56303;52.160;-0.428;2023-04-24T11:45:27;4.80;;;2.20;;
20743;SDS011;56303;52.160;-0.428;2023-04-24T11:47:54;5.13;;;2.63;;
20743;SDS011;56303;52.160;-0.428;2023-04-24T11:50:22;4.57;;;2.17;;
20743;SDS011;56303;52.160;-0.428;2023-04-24T11:52:52;5.13;;;2.30;;
20743;SDS011;56303;52.160;-0.428;2023-04-24T11:57:46;5.50;;;2.50;;
20743;SDS011;56303;52.160;-0.428;2023-04-24T12:00:16;3.33;;;2.10;;
20743;SDS011;56303;52.160;-0.428;2023-04-24T12:02:48;4.03;;;2.57;;
20743;SDS011;56303;52.160;-0.428;2023-04-24T12:05:20;4.43;;;2.47;;
20743;SDS011;56303;52.160;-0.428;2023-04-24T12:07:48;3.83;;;2.60;;
20743;SDS011;56303;52.160;-0.428;2023-04-24T12:10:25;4.27;;;2.33;;
20743;SDS011;56303;52.160;-0.428;2023-04-24T12:12:55;2.83;;;2.43;;
20743;SDS011;56303;52.160;-0.428;2023-04-24T12:15:23;5.63;;;2.60;;
20743;SDS011;56303;52.160;-0.428;2023-04-24T12:17:50;5.97;;;2.70;;
20743;SDS011;56303;52.160;-0.428;2023-04-24T12:20:23;4.87;;;2.73;;
20743;SDS011;56303;52.160;-0.428;2023-04-24T12:25:27;3.50;;;2.20;;
20743;SDS011;56303;52.160;-0.428;2023-04-24T12:30:39;3.60;;;2.30;;
20743;SDS011;56303;52.160;-0.428;2023-04-24T12:33:07;5.87;;;2.50;;
20743;SDS011;56303;52.160;-0.428;2023-04-24T12:35:34;6.37;;;3.23;;
20743;SDS011;56303;52.160;-0.428;2023-04-24T12:38:08;5.60;;;3.27;;
20743;SDS011;56303;52.160;-0.428;2023-04-24T12:40:39;6.80;;;3.00;;
20743;SDS011;56303;52.160;-0.428;2023-04-24T12:43:18;4.37;;;2.37;;
20743;SDS011;56303;52.160;-0.428;2023-04-24T12:45:47;6.10;;;2.90;;
20743;SDS011;56303;52.160;-0.428;2023-04-24T12:48:16;4.67;;;2.47;;
20743;SDS011;56303;52.160;-0.428;2023-04-24T12:50:43;5.50;;;2.90;;
20743;SDS011;56303;52.160;-0.428;2023-04-24T12:53:12;8.43;;;3.07;;
20743;SDS011;56303;52.160;-0.428;2023-04-24T12:55:39;4.50;;;3.10;;
20743;SDS011;56303;52.160;-0.428;2023-04-24T12:58:06;4.47;;;3.13;;
20743;SDS011;56303;52.160;-0.428;2023-04-24T13:00:37;5.67;;;3.17;;
20743;SDS011;56303;52.160;-0.428;2023-04-24T13:03:05;6.07;;;2.90;;
20743;SDS011;56303;52.160;-0.428;2023-04-24T13:05:32;6.23;;;3.30;;
20743;SDS011;56303;52.160;-0.428;2023-04-24T13:07:59;6.20;;;3.03;;
20743;SDS011;56303;52.160;-0.428;2023-04-24T13:10:26;6.63;;;3.10;;
20743;SDS011;56303;52.160;-0.428;2023-04-24T13:12:52;5.23;;;3.30;;
20743;SDS011;56303;52.160;-0.428;2023-04-24T13:15:19;6.07;;;2.73;;
20743;SDS011;56303;52.160;-0.428;2023-04-24T13:17:46;5.27;;;2.80;;
20743;SDS011;56303;52.160;-0.428;2023-04-24T13:20:13;5.73;;;3.20;;
20743;SDS011;56303;52.160;-0.428;2023-04-24T13:22:40;5.83;;;2.70;;
20743;SDS011;56303;52.160;-0.428;2023-04-24T13:25:07;4.83;;;2.43;;
20743;SDS011;56303;52.160;-0.428;2023-04-24T13:27:35;4.63;;;2.20;;
20743;SDS011;56303;52.160;-0.428;2023-04-24T13:30:03;3.47;;;2.30;;
20743;SDS011;56303;52.160;-0.428;2023-04-24T13:32:31;6.00;;;2.63;;
20743;SDS011;56303;52.160;-0.428;2023-04-24T13:34:59;3.67;;;1.93;;
20743;SDS011;56303;52.160;-0.428;2023-04-24T13:37:26;5.97;;;2.67;;
20743;SDS011;56303;52.160;-0.428;2023-04-24T13:39:53;4.20;;;2.00;;
20743;SDS011;56303;52.160;-0.428;2023-04-24T13:42:20;5.80;;;2.30;;
20743;SDS011;56303;52.160;-0.428;2023-04-24T13:44:46;4.37;;;2.83;;
20743;SDS011;56303;52.160;-0.428;2023-04-24T13:47:13;5.73;;;2.50;;
20743;SDS011;56303;52.160;-0.428;2023-04-24T13:49:40;4.90;;;2.50;;
20743;SDS011;56303;52.160;-0.428;2023-04-24T13:52:07;5.37;;;2.67;;
20743;SDS011;56303;52.160;-0.428;2023-04-24T13:54:36;6.70;;;2.50;;
20743;SDS011;56303;52.160;-0.428;2023-04-24T13:57:03;4.47;;;2.40;;
20743;SDS011;56303;52.160;-0.428;2023-04-24T13:59:30;4.60;;;2.73;;
20743;SDS011;56303;52.160;-0.428;2023-04-24T14:01:56;6.73;;;2.97;;
20743;SDS011;56303;52.160;-0.428;2023-04-24T14:04:23;5.63;;;2.90;;
20743;SDS011;56303;52.160;-0.428;2023-04-24T14:06:52;3.87;;;2.30;;
20743;SDS011;56303;52.160;-0.428;2023-04-24T14:09:19;4.00;;;2.20;;
20743;SDS011;56303;52.160;-0.428;2023-04-24T14:11:46;6.47;;;2.70;;
20743;SDS011;56303;52.160;-0.428;2023-04-24T14:14:13;5.03;;;2.43;;
20743;SDS011;56303;52.160;-0.428;2023-04-24T14:16:40;5.80;;;2.67;;
20743;SDS011;56303;52.160;-0.428;2023-04-24T14:19:07;7.33;;;3.00;;
20743;SDS011;56303;52.160;-0.428;2023-04-24T14:21:33;5.53;;;2.90;;
20743;SDS011;56303;52.160;-0.428;2023-04-24T14:24:00;6.40;;;2.67;;
20743;SDS011;56303;52.160;-0.428;2023-04-24T14:26:27;5.73;;;2.53;;
20743;SDS011;56303;52.160;-0.428;2023-04-24T14:28:54;6.40;;;3.00;;
20743;SDS011;56303;52.160;-0.428;2023-04-24T14:31:39;7.23;;;3.47;;
20743;SDS011;56303;52.160;-0.428;2023-04-24T14:34:06;5.90;;;3.00;;
20743;SDS011;56303;52.160;-0.428;2023-04-24T14:36:32;5.23;;;3.37;;
20743;SDS011;56303;52.160;-0.428;2023-04-24T14:38:59;6.93;;;3.30;;
20743;SDS011;56303;52.160;-0.428;2023-04-24T14:41:29;8.37;;;3.73;;
20743;SDS011;56303;52.160;-0.428;2023-04-24T14:43:56;6.50;;;3.13;;
20743;SDS011;56303;52.160;-0.428;2023-04-24T14:46:23;11.90;;;4.30;;
20743;SDS011;56303;52.160;-0.428;2023-04-24T14:48:50;5.47;;;3.47;;
20743;SDS011;56303;52.160;-0.428;2023-04-24T14:51:17;7.80;;;3.60;;
20743;SDS011;56303;52.160;-0.428;2023-04-24T14:53:43;12.27;;;3.80;;
20743;SDS011;56303;52.160;-0.428;2023-04-24T14:56:13;5.10;;;3.17;;